createdAt,value
2022-10-31T00:01:14.973Z,182.40
2022-10-31T00:03:42.545Z,162.00
2022-10-31T00:06:10.064Z,167.97
2022-10-31T00:08:37.644Z,182.80
2022-10-31T00:11:10.912Z,178.80
2022-10-31T00:13:38.493Z,193.30
2022-10-31T00:16:06.765Z,191.10
2022-10-31T00:18:34.316Z,176.67
2022-10-31T00:21:02.359Z,182.73
2022-10-31T00:23:30.088Z,181.50
2022-10-31T00:26:02.715Z,205.63
2022-10-31T00:28:32.959Z,178.90
2022-10-31T00:31:01.909Z,207.10
2022-10-31T00:33:30.220Z,204.60
2022-10-31T00:35:58.071Z,184.53
2022-10-31T00:38:25.588Z,176.50
2022-10-31T00:40:53.228Z,175.30
2022-10-31T00:43:20.756Z,188.83
2022-10-31T00:45:49.704Z,185.17
2022-10-31T00:48:17.303Z,185.87
2022-10-31T00:50:44.826Z,181.70
2022-10-31T00:53:12.376Z,182.90
2022-10-31T00:55:40.035Z,197.63
2022-10-31T00:58:07.630Z,196.93
2022-10-31T01:00:35.441Z,187.03
2022-10-31T01:03:04.658Z,187.20
2022-10-31T01:05:32.483Z,190.73
2022-10-31T01:08:00.536Z,185.67
2022-10-31T01:10:28.113Z,186.97
2022-10-31T01:12:55.632Z,189.10
2022-10-31T01:15:24.720Z,189.87
2022-10-31T01:17:52.264Z,190.20
2022-10-31T01:20:21.368Z,196.80
2022-10-31T01:22:48.905Z,191.90
2022-10-31T01:25:16.452Z,190.90
2022-10-31T01:27:43.980Z,194.60
2022-10-31T01:30:12.604Z,182.13
2022-10-31T01:32:40.177Z,185.67
2022-10-31T01:35:08.574Z,182.77
2022-10-31T01:37:37.457Z,192.93
2022-10-31T01:40:05.780Z,183.87
2022-10-31T01:42:33.313Z,184.27
2022-10-31T01:45:02.884Z,187.60
2022-10-31T01:47:39.717Z,188.67
2022-10-31T01:50:14.676Z,190.47
2022-10-31T01:52:46.718Z,183.40
2022-10-31T01:55:20.221Z,184.80
2022-10-31T01:57:52.132Z,188.10
2022-10-31T02:00:22.049Z,195.17
2022-10-31T02:02:51.752Z,195.67
2022-10-31T02:05:23.732Z,190.90
2022-10-31T02:07:59.178Z,194.67
2022-10-31T02:10:27.013Z,187.93
2022-10-31T02:12:57.756Z,189.47
2022-10-31T02:15:25.597Z,198.00
2022-10-31T02:17:53.561Z,188.50
2022-10-31T02:20:23.465Z,198.33
2022-10-31T02:23:35.383Z,203.63
2022-10-31T02:26:28.453Z,195.40
2022-10-31T02:29:22.137Z,184.03
2022-10-31T02:32:02.421Z,194.00
2022-10-31T02:34:38.712Z,188.20
2022-10-31T02:37:13.251Z,187.03
2022-10-31T02:39:47.947Z,190.13
2022-10-31T02:42:23.136Z,201.43
2022-10-31T02:44:54.707Z,189.83
2022-10-31T02:47:28.245Z,188.90
2022-10-31T02:49:59.812Z,194.53
2022-10-31T02:52:29.154Z,180.20
2022-10-31T02:54:57.008Z,186.10
2022-10-31T02:57:27.520Z,181.53
2022-10-31T03:00:08.250Z,193.10
2022-10-31T03:02:48.260Z,179.80
2022-10-31T03:05:34.860Z,186.93
2022-10-31T03:08:08.613Z,179.60
2022-10-31T03:10:42.248Z,185.63
2022-10-31T03:13:12.922Z,183.77
2022-10-31T03:15:45.329Z,178.33
2022-10-31T03:18:19.261Z,175.83
2022-10-31T03:20:51.036Z,221.20
2022-10-31T03:23:21.402Z,171.30
2022-10-31T03:25:50.732Z,170.63
2022-10-31T03:28:23.818Z,192.20
2022-10-31T03:30:53.313Z,201.13
2022-10-31T03:33:28.481Z,190.43
2022-10-31T03:36:00.287Z,186.63
2022-10-31T03:38:28.280Z,187.70
2022-10-31T03:40:59.645Z,175.80
2022-10-31T03:43:32.173Z,196.80
2022-10-31T03:46:00.073Z,243.73
2022-10-31T03:48:29.428Z,220.13
2022-10-31T03:51:06.845Z,167.80
2022-10-31T03:53:38.849Z,176.80
2022-10-31T03:56:12.016Z,196.60
2022-10-31T03:58:47.215Z,223.17
2022-10-31T04:01:18.859Z,216.90
2022-10-31T04:03:48.177Z,218.27
2022-10-31T04:06:18.832Z,207.87
2022-10-31T04:08:51.696Z,199.20
2022-10-31T04:11:23.904Z,208.80
2022-10-31T04:13:52.577Z,210.73
2022-10-31T04:16:21.432Z,196.80
2022-10-31T04:18:50.336Z,167.47
2022-10-31T04:21:18.121Z,227.30
2022-10-31T04:23:45.673Z,163.30
2022-10-31T04:26:14.531Z,161.10
2022-10-31T04:28:42.062Z,157.80
2022-10-31T04:31:12.082Z,185.03
2022-10-31T04:33:39.711Z,179.10
2022-10-31T04:36:09.153Z,174.07
2022-10-31T04:38:36.728Z,167.87
2022-10-31T04:41:04.622Z,149.30
2022-10-31T04:43:32.141Z,165.27
2022-10-31T04:45:59.696Z,172.40
2022-10-31T04:48:27.356Z,171.03
2022-10-31T04:50:54.865Z,200.17
2022-10-31T04:53:23.744Z,145.93
2022-10-31T04:55:51.281Z,189.13
2022-10-31T04:58:18.823Z,146.60
2022-10-31T05:00:46.507Z,160.33
2022-10-31T05:03:14.073Z,166.17
2022-10-31T05:05:41.597Z,174.20
2022-10-31T05:08:09.172Z,142.87
2022-10-31T05:10:38.173Z,164.53
2022-10-31T05:13:06.830Z,137.53
2022-10-31T05:15:34.592Z,138.80
2022-10-31T05:18:02.690Z,138.87
2022-10-31T05:20:32.581Z,177.07
2022-10-31T05:23:00.929Z,189.93
2022-10-31T05:25:30.177Z,159.93
2022-10-31T05:27:59.829Z,144.63
2022-10-31T05:30:30.729Z,166.20
2022-10-31T05:32:58.792Z,163.03
2022-10-31T05:35:28.414Z,157.50
2022-10-31T05:37:55.972Z,218.70
2022-10-31T05:40:24.068Z,161.13
2022-10-31T05:42:53.577Z,145.07
2022-10-31T05:45:23.491Z,139.70
2022-10-31T05:47:55.024Z,174.07
2022-10-31T05:50:22.676Z,176.10
2022-10-31T05:52:56.969Z,159.97
2022-10-31T05:55:24.572Z,138.20
2022-10-31T05:57:52.267Z,139.00
2022-10-31T06:00:20.192Z,167.83
2022-10-31T06:02:49.389Z,198.20
2022-10-31T06:05:17.717Z,170.50
2022-10-31T06:07:45.262Z,136.07
2022-10-31T06:10:12.859Z,171.77
2022-10-31T06:12:41.593Z,184.53
2022-10-31T06:15:10.340Z,165.03
2022-10-31T06:17:38.147Z,165.27
2022-10-31T06:20:08.833Z,169.83
2022-10-31T06:22:36.423Z,121.30
2022-10-31T06:25:04.440Z,115.30
2022-10-31T06:27:31.992Z,153.97
2022-10-31T06:29:59.519Z,161.53
2022-10-31T06:32:27.234Z,158.83
2022-10-31T06:34:54.766Z,113.17
2022-10-31T06:37:23.765Z,152.10
2022-10-31T06:39:51.324Z,109.33
2022-10-31T06:42:19.029Z,136.33
2022-10-31T06:44:46.654Z,124.67
2022-10-31T06:47:14.183Z,125.97
2022-10-31T06:49:41.725Z,144.20
2022-10-31T06:52:09.248Z,122.07
2022-10-31T06:54:38.173Z,107.17
2022-10-31T06:57:05.708Z,141.37
2022-10-31T06:59:33.394Z,127.70
2022-10-31T07:02:01.043Z,95.53
2022-10-31T07:04:28.685Z,102.73
2022-10-31T07:06:56.269Z,130.93
2022-10-31T07:09:23.813Z,122.23
2022-10-31T07:11:54.003Z,127.27
2022-10-31T07:14:21.660Z,130.70
2022-10-31T07:16:51.201Z,113.83
2022-10-31T07:19:19.209Z,119.10
2022-10-31T07:21:46.748Z,106.10
2022-10-31T07:24:14.268Z,104.43
2022-10-31T07:26:43.208Z,103.70
2022-10-31T07:29:12.197Z,98.13
2022-10-31T07:31:39.841Z,110.17
2022-10-31T07:34:07.368Z,106.03
2022-10-31T07:36:34.895Z,141.77
2022-10-31T07:39:03.208Z,105.87
2022-10-31T07:41:30.820Z,121.23
2022-10-31T07:43:58.357Z,134.67
2022-10-31T07:46:27.321Z,127.30
2022-10-31T07:48:54.865Z,154.03
2022-10-31T07:51:22.403Z,144.20
2022-10-31T07:53:49.934Z,152.63
2022-10-31T07:56:17.452Z,131.37
2022-10-31T07:58:45.069Z,106.73
2022-10-31T08:03:46.481Z,93.57
2022-10-31T08:06:14.021Z,100.03
2022-10-31T08:08:41.553Z,116.97
2022-10-31T08:11:09.079Z,97.63
2022-10-31T08:13:36.716Z,113.10
2022-10-31T08:16:05.511Z,101.80
2022-10-31T08:18:33.572Z,106.00
2022-10-31T08:21:02.479Z,117.63
2022-10-31T08:23:30.029Z,113.37
2022-10-31T08:25:59.396Z,117.60
2022-10-31T08:28:27.073Z,121.03
2022-10-31T08:30:54.583Z,120.07
2022-10-31T08:33:22.148Z,116.00
2022-10-31T08:35:50.613Z,119.17
2022-10-31T08:38:19.479Z,113.03
2022-10-31T08:40:50.809Z,105.73
2022-10-31T08:43:19.762Z,104.77
2022-10-31T08:45:50.803Z,115.73
2022-10-31T08:48:19.204Z,109.87
2022-10-31T08:50:47.315Z,108.63
2022-10-31T08:53:17.036Z,119.33
2022-10-31T08:55:47.093Z,107.37
2022-10-31T08:58:16.633Z,99.23
2022-10-31T09:00:44.786Z,102.47
2022-10-31T09:03:16.012Z,103.43
2022-10-31T09:05:43.637Z,103.80
2022-10-31T09:08:15.954Z,102.60
2022-10-31T09:10:46.431Z,87.83
2022-10-31T09:13:15.379Z,88.83
2022-10-31T09:15:45.429Z,78.70
2022-10-31T09:18:14.415Z,70.97
2022-10-31T09:20:43.341Z,68.50
2022-10-31T09:23:12.646Z,62.70
2022-10-31T09:25:40.659Z,64.63
2022-10-31T09:28:12.500Z,66.77
2022-10-31T09:30:40.472Z,58.10
2022-10-31T09:33:11.036Z,61.70
2022-10-31T09:35:39.085Z,57.10
2022-10-31T09:38:08.933Z,53.33
2022-10-31T09:40:38.820Z,52.00
2022-10-31T09:43:16.898Z,48.13
2022-10-31T09:45:55.690Z,50.07
2022-10-31T09:48:39.669Z,48.97
2022-10-31T09:51:10.829Z,52.40
2022-10-31T09:53:42.370Z,52.17
2022-10-31T09:56:13.777Z,51.13
2022-10-31T09:58:45.405Z,49.63
2022-10-31T10:01:30.668Z,50.63
2022-10-31T10:04:03.402Z,50.90
2022-10-31T10:06:34.481Z,49.90
2022-10-31T10:09:03.296Z,49.10
2022-10-31T10:11:44.352Z,48.73
2022-10-31T10:14:33.873Z,50.97
2022-10-31T10:17:14.115Z,49.87
2022-10-31T10:19:54.303Z,48.70
2022-10-31T10:22:30.175Z,46.17
2022-10-31T10:25:16.726Z,45.87
2022-10-31T10:27:52.390Z,44.23
2022-10-31T10:30:23.468Z,43.20
2022-10-31T10:32:55.178Z,45.43
2022-10-31T10:35:28.160Z,42.10
2022-10-31T10:38:00.941Z,39.00
2022-10-31T10:40:30.068Z,38.33
2022-10-31T10:43:22.395Z,39.20
2022-10-31T10:46:16.812Z,37.30
2022-10-31T10:48:47.197Z,37.27
2022-10-31T10:51:38.872Z,35.90
2022-10-31T10:54:28.862Z,33.50
2022-10-31T10:57:07.448Z,34.87
2022-10-31T10:59:36.540Z,35.20
2022-10-31T11:02:17.878Z,36.47
2022-10-31T11:04:47.382Z,33.73
2022-10-31T11:07:14.920Z,34.83
2022-10-31T11:09:42.535Z,33.13
2022-10-31T11:12:11.964Z,32.80
2022-10-31T11:14:48.436Z,34.83
2022-10-31T11:17:27.190Z,33.97
2022-10-31T11:20:25.012Z,32.60
2022-10-31T11:23:03.885Z,32.20
2022-10-31T11:25:31.454Z,32.53
2022-10-31T11:28:03.704Z,33.20
2022-10-31T11:30:32.260Z,33.33
2022-10-31T11:33:01.532Z,33.70
2022-10-31T11:35:31.172Z,33.50
2022-10-31T11:38:03.331Z,33.50
2022-10-31T11:40:31.257Z,35.37
2022-10-31T11:43:00.862Z,33.60
2022-10-31T11:45:33.523Z,32.40
2022-10-31T11:48:04.322Z,32.00
2022-10-31T11:50:37.559Z,32.40
2022-10-31T11:53:06.168Z,33.90
2022-10-31T11:55:36.079Z,31.20
2022-10-31T11:58:04.557Z,32.60
2022-10-31T12:00:34.055Z,30.63
2022-10-31T12:03:22.424Z,35.50
2022-10-31T12:05:55.397Z,32.90
2022-10-31T12:08:23.029Z,31.23
2022-10-31T12:10:59.860Z,34.10
2022-10-31T12:13:35.872Z,35.17
2022-10-31T12:16:14.349Z,32.53
2022-10-31T12:19:00.864Z,32.23
2022-10-31T12:21:47.013Z,34.00
2022-10-31T12:24:25.091Z,35.70
2022-10-31T12:27:03.435Z,35.50
2022-10-31T12:29:48.773Z,35.93
2022-10-31T12:32:30.011Z,37.40
2022-10-31T12:35:15.985Z,36.17
2022-10-31T12:38:04.549Z,37.17
2022-10-31T12:40:58.752Z,37.23
2022-10-31T12:43:37.258Z,35.80
2022-10-31T12:46:10.017Z,37.30
2022-10-31T12:49:03.976Z,39.90
2022-10-31T12:51:40.186Z,38.10
2022-10-31T12:54:21.806Z,36.53
2022-10-31T12:56:55.860Z,37.17
2022-10-31T12:59:29.523Z,35.00
2022-10-31T13:02:02.352Z,33.80
2022-10-31T13:04:41.176Z,30.87
2022-10-31T13:07:15.368Z,31.10
2022-10-31T13:09:47.200Z,31.67
2022-10-31T13:12:19.128Z,31.00
2022-10-31T13:14:50.731Z,30.30
2022-10-31T13:17:27.960Z,27.70
2022-10-31T13:20:04.509Z,30.40
2022-10-31T13:22:36.581Z,27.73
2022-10-31T13:25:11.674Z,27.80
2022-10-31T13:27:50.723Z,27.43
2022-10-31T13:30:21.064Z,28.70
2022-10-31T13:32:53.613Z,30.10
2022-10-31T13:35:27.707Z,29.40
2022-10-31T13:38:07.711Z,28.53
2022-10-31T13:40:41.654Z,26.97
2022-10-31T13:43:21.257Z,28.97
2022-10-31T13:45:53.864Z,29.10
2022-10-31T13:48:42.089Z,31.23
2022-10-31T13:51:11.946Z,30.30
2022-10-31T13:53:45.513Z,30.20
2022-10-31T13:56:19.756Z,29.57
2022-10-31T13:59:20.493Z,29.63
2022-10-31T14:01:50.879Z,30.10
2022-10-31T14:04:25.181Z,31.70
2022-10-31T14:06:59.163Z,31.13
2022-10-31T14:09:32.128Z,30.57
2022-10-31T14:12:03.676Z,30.07
2022-10-31T14:14:37.708Z,31.27
2022-10-31T14:17:05.359Z,32.57
2022-10-31T14:19:32.945Z,32.40
2022-10-31T14:22:00.550Z,32.83
2022-10-31T14:24:38.638Z,33.33
2022-10-31T14:27:34.805Z,34.23
2022-10-31T14:30:15.532Z,33.03
2022-10-31T14:32:45.055Z,34.13
2022-10-31T14:35:21.387Z,33.57
2022-10-31T14:38:14.005Z,33.63
2022-10-31T14:40:54.332Z,33.80
2022-10-31T14:43:45.339Z,33.50
2022-10-31T14:46:20.209Z,34.97
2022-10-31T14:49:06.537Z,35.70
2022-10-31T14:51:39.076Z,34.10
2022-10-31T14:54:08.051Z,37.60
2022-10-31T14:56:43.715Z,37.10
2022-10-31T14:59:16.523Z,36.03
2022-10-31T15:01:55.868Z,36.30
2022-10-31T15:04:26.695Z,37.90
2022-10-31T15:06:59.924Z,38.27
2022-10-31T15:09:29.417Z,36.77
2022-10-31T15:12:00.554Z,36.33
2022-10-31T15:14:29.984Z,37.53
2022-10-31T15:16:59.762Z,35.90
2022-10-31T15:19:29.397Z,38.03
2022-10-31T15:21:58.827Z,37.17
2022-10-31T15:24:33.036Z,37.90
2022-10-31T15:27:04.840Z,38.90
2022-10-31T15:29:33.631Z,38.27
2022-10-31T15:32:02.779Z,37.23
2022-10-31T15:34:37.763Z,37.67
2022-10-31T15:37:05.536Z,39.10
2022-10-31T15:39:33.961Z,38.03
2022-10-31T15:42:03.343Z,39.47
2022-10-31T15:44:33.544Z,40.20
2022-10-31T15:47:03.359Z,39.70
2022-10-31T15:49:36.173Z,40.40
2022-10-31T15:52:16.621Z,39.93
2022-10-31T15:54:49.812Z,40.63
2022-10-31T15:57:19.284Z,40.37
2022-10-31T15:59:49.997Z,40.57
2022-10-31T16:02:21.794Z,39.77
2022-10-31T16:04:52.371Z,42.17
2022-10-31T16:07:23.542Z,40.83
2022-10-31T16:09:57.179Z,43.20
2022-10-31T16:12:31.064Z,62.43
2022-10-31T16:14:58.607Z,62.10
2022-10-31T16:17:28.014Z,58.50
2022-10-31T16:19:59.003Z,57.00
2022-10-31T16:22:29.169Z,56.97
2022-10-31T16:25:03.960Z,52.83
2022-10-31T16:27:34.781Z,56.20
2022-10-31T16:30:05.274Z,54.43
2022-10-31T16:32:36.325Z,52.80
2022-10-31T16:35:20.343Z,56.00
2022-10-31T16:37:48.972Z,49.70
2022-10-31T16:40:17.126Z,52.60
2022-10-31T16:42:48.111Z,53.70
2022-10-31T16:45:19.256Z,51.00
2022-10-31T16:47:47.284Z,47.27
2022-10-31T16:50:16.759Z,45.60
2022-10-31T16:53:08.419Z,42.70
2022-10-31T16:55:35.829Z,43.00
2022-10-31T16:58:04.929Z,40.93
2022-10-31T17:00:34.440Z,43.00
2022-10-31T17:03:02.165Z,43.63
2022-10-31T17:05:30.307Z,42.50
2022-10-31T17:07:58.712Z,43.40
2022-10-31T17:10:27.252Z,44.07
2022-10-31T17:12:55.584Z,46.07
2022-10-31T17:15:26.710Z,46.00
2022-10-31T17:17:55.045Z,45.37
2022-10-31T17:20:24.771Z,43.83
2022-10-31T17:22:52.724Z,45.83
2022-10-31T17:25:23.659Z,43.90
2022-10-31T17:27:52.239Z,47.17
2022-10-31T17:30:21.228Z,46.70
2022-10-31T17:32:51.044Z,46.80
2022-10-31T17:35:19.844Z,46.93
2022-10-31T17:37:47.876Z,48.83
2022-10-31T17:40:17.510Z,48.73
2022-10-31T17:42:50.573Z,46.47
2022-10-31T17:45:18.657Z,49.13
2022-10-31T17:47:47.973Z,46.70
2022-10-31T17:50:17.145Z,46.67
2022-10-31T17:52:44.744Z,44.67
2022-10-31T17:55:12.764Z,43.43
2022-10-31T17:57:40.737Z,44.23
2022-10-31T18:00:12.601Z,46.07
2022-10-31T18:02:40.270Z,44.90
2022-10-31T18:05:08.712Z,44.87
2022-10-31T18:07:38.189Z,45.47
2022-10-31T18:10:07.010Z,45.37
2022-10-31T18:12:36.612Z,44.03
2022-10-31T18:15:04.704Z,44.47
2022-10-31T18:17:33.048Z,44.20
2022-10-31T18:20:01.076Z,43.93
2022-10-31T18:22:28.635Z,47.17
2022-10-31T18:25:01.885Z,47.27
2022-10-31T18:27:29.962Z,48.30
2022-10-31T18:29:57.493Z,47.63
2022-10-31T18:32:25.077Z,48.87
2022-10-31T18:34:52.620Z,49.13
2022-10-31T18:37:20.182Z,47.60
2022-10-31T18:39:47.725Z,47.70
2022-10-31T18:42:16.613Z,48.10
2022-10-31T18:44:44.155Z,48.17
2022-10-31T18:47:11.712Z,47.40
2022-10-31T18:49:39.252Z,47.37
2022-10-31T18:52:06.804Z,50.40
2022-10-31T18:54:34.387Z,50.77
2022-10-31T18:57:02.158Z,50.07
2022-10-31T18:59:31.059Z,51.50
2022-10-31T19:01:58.687Z,46.77
2022-10-31T19:04:26.465Z,49.37
2022-10-31T19:06:55.774Z,47.97
2022-10-31T19:09:24.183Z,48.70
2022-10-31T19:11:51.868Z,50.40
2022-10-31T19:14:19.594Z,51.70
2022-10-31T19:16:51.924Z,49.40
2022-10-31T19:19:20.500Z,50.40
2022-10-31T19:21:48.460Z,49.50
2022-10-31T19:24:16.063Z,51.60
2022-10-31T19:26:43.737Z,50.00
2022-10-31T19:29:11.433Z,50.00
2022-10-31T19:31:38.993Z,51.27
2022-10-31T19:34:07.885Z,52.27
2022-10-31T19:36:36.461Z,51.60
2022-10-31T19:39:04.198Z,51.70
2022-10-31T19:41:32.062Z,53.23
2022-10-31T19:44:00.649Z,52.27
2022-10-31T19:46:51.761Z,52.50
2022-10-31T19:49:17.645Z,51.40
2022-10-31T19:51:45.199Z,53.67
2022-10-31T19:54:13.016Z,56.10
2022-10-31T19:56:40.582Z,52.43
2022-10-31T19:59:08.227Z,51.67
2022-10-31T20:01:36.119Z,52.30
2022-10-31T20:04:03.904Z,53.30
2022-10-31T20:06:34.712Z,52.17
2022-10-31T20:09:04.024Z,53.70
2022-10-31T20:11:32.231Z,52.33
2022-10-31T20:14:00.777Z,55.60
2022-10-31T20:16:29.364Z,53.30
2022-10-31T20:18:59.429Z,51.73
2022-10-31T20:21:29.683Z,55.60
2022-10-31T20:23:59.905Z,52.10
2022-10-31T20:26:28.498Z,52.23
2022-10-31T20:28:56.599Z,50.23
2022-10-31T20:31:26.713Z,52.93
2022-10-31T20:33:55.693Z,54.60
2022-10-31T20:36:23.810Z,52.27
2022-10-31T20:38:52.720Z,54.13
2022-10-31T20:41:21.833Z,53.10
2022-10-31T20:43:49.588Z,55.57
2022-10-31T20:46:18.856Z,52.60
2022-10-31T20:48:46.491Z,52.93
2022-10-31T20:53:45.402Z,51.90
2022-10-31T20:56:15.393Z,49.87
2022-10-31T20:58:45.632Z,51.13
2022-10-31T21:01:16.882Z,52.57
2022-10-31T21:03:45.564Z,52.07
2022-10-31T21:06:14.173Z,52.67
2022-10-31T21:08:42.637Z,51.30
2022-10-31T21:11:11.971Z,52.73
2022-10-31T21:13:41.304Z,49.33
2022-10-31T21:16:12.711Z,50.30
2022-10-31T21:18:41.964Z,50.10
2022-10-31T21:21:10.052Z,52.60
2022-10-31T21:23:37.626Z,48.43
2022-10-31T21:26:06.621Z,49.73
2022-10-31T21:28:34.224Z,49.33
2022-10-31T21:31:06.304Z,49.37
2022-10-31T21:33:35.312Z,48.87
2022-10-31T21:36:04.089Z,51.77
2022-10-31T21:38:31.860Z,49.73
2022-10-31T21:41:01.323Z,49.17
2022-10-31T21:43:29.707Z,49.63
2022-10-31T21:46:02.666Z,50.60
2022-10-31T21:48:30.212Z,50.97
2022-10-31T21:51:03.917Z,53.50
2022-10-31T21:53:49.053Z,53.87
2022-10-31T21:56:16.660Z,50.87
2022-10-31T21:58:44.181Z,53.00
2022-10-31T22:01:11.848Z,53.03
2022-10-31T22:03:41.164Z,54.40
2022-10-31T22:06:11.845Z,53.50
2022-10-31T22:08:40.532Z,54.53
2022-10-31T22:11:10.220Z,53.37
2022-10-31T22:13:38.433Z,53.87
2022-10-31T22:16:08.184Z,56.57
2022-10-31T22:18:36.412Z,55.07
2022-10-31T22:21:05.220Z,54.13
2022-10-31T22:23:34.093Z,54.87
2022-10-31T22:26:04.819Z,56.97
2022-10-31T22:28:32.955Z,55.73
2022-10-31T22:31:04.789Z,57.83
2022-10-31T22:33:32.541Z,55.87
2022-10-31T22:36:02.801Z,57.60
2022-10-31T22:38:30.373Z,54.80
2022-10-31T22:41:00.025Z,56.73
2022-10-31T22:43:28.248Z,55.63
2022-10-31T22:45:56.450Z,55.80
2022-10-31T22:48:23.980Z,56.20
2022-10-31T22:50:51.693Z,56.17
2022-10-31T22:53:19.351Z,55.97
2022-10-31T22:55:46.876Z,55.83
2022-10-31T22:58:15.764Z,55.17
2022-10-31T23:00:43.330Z,55.60
2022-10-31T23:03:10.951Z,56.90
2022-10-31T23:05:38.494Z,57.93
2022-10-31T23:08:06.544Z,58.83
2022-10-31T23:10:35.697Z,55.70
2022-10-31T23:13:20.822Z,58.30
2022-10-31T23:15:49.696Z,56.67
2022-10-31T23:18:36.626Z,55.97
2022-10-31T23:21:07.479Z,54.57
2022-10-31T23:23:36.697Z,56.07
2022-10-31T23:26:22.692Z,57.30
2022-10-31T23:28:50.276Z,56.73
2022-10-31T23:31:19.145Z,57.63
2022-10-31T23:33:46.659Z,55.93
2022-10-31T23:36:14.192Z,57.70
2022-10-31T23:38:42.624Z,60.30
2022-10-31T23:41:10.397Z,56.87
2022-10-31T23:43:37.916Z,57.07
2022-10-31T23:46:05.615Z,55.47
2022-10-31T23:48:34.517Z,60.00
2022-10-31T23:51:02.244Z,57.77
2022-10-31T23:53:29.814Z,57.27
2022-10-31T23:55:57.531Z,56.67
2022-10-31T23:58:25.064Z,57.80
